Balsa 86 — 3EYV6 — position and weather

sailwx.info

Track history (hours):
 
Tides and Currents Weather Stations Pressure Air Temp Water Temp Dewpoint Dewpoint Depression Visibility Wind Speed Wind Dir Waves Ship Positions

Balsa 86

Last reported at 2018-Jun-14 06:43 UTC. Time now 2018-Jun-18 15:45 UTC.
Position N 25°52' W 079°24'.

Length 106 m; draft 6.9 m.

Type: Cargo ship. MMSI: 372592000.

Date/timePositionNaut miles runAvg speedWind from/ knotsBaromVisibWave heightAir tempDewpointWater temp
2018-Jun-14 06:43N 25°52' W 079°24'1710.3
2018-Jun-14 05:01N 26°09' W 079°25'110.0
2018-Jun-14 04:57N 26°10' W 079°25'  
2018-Jun-10 10:22N 26°16' W 079°25'  
2018-Jun-04 17:28N 25°38' W 079°23'610.5
2018-Jun-04 16:54N 25°44' W 079°24'610.3
2018-Jun-04 16:19N 25°50' W 079°24'1610.2
2018-Jun-04 14:43N 26°06' W 079°24'310.4
2018-Jun-04 14:26N 26°09' W 079°25'410.4
2018-Jun-04 14:00N 26°13' W 079°25'  
Track history (hours):
 
Tides and Currents Weather Stations Pressure Air Temp Water Temp Dewpoint Dewpoint Depression Visibility Wind Speed Wind Dir Waves Ship Positions

Balsa 86

Last reported at 2018-Jun-14 06:43 UTC. Time now 2018-Jun-18 15:45 UTC.
Position N 25°52' W 079°24'.

Length 106 m; draft 6.9 m.

Type: Cargo ship. MMSI: 372592000.

Date/timePositionNaut miles runAvg speedWind from/ knotsBaromVisibWave heightAir tempDewpointWater temp
2018-Jun-14 06:43N 25°52' W 079°24'1710.3
2018-Jun-14 05:01N 26°09' W 079°25'110.0
2018-Jun-14 04:57N 26°10' W 079°25'  
2018-Jun-10 10:22N 26°16' W 079°25'  
2018-Jun-04 17:28N 25°38' W 079°23'610.5
2018-Jun-04 16:54N 25°44' W 079°24'610.3
2018-Jun-04 16:19N 25°50' W 079°24'1610.2
2018-Jun-04 14:43N 26°06' W 079°24'310.4
2018-Jun-04 14:26N 26°09' W 079°25'410.4
2018-Jun-04 14:00N 26°13' W 079°25'  

Dump ship's entire track history